Time;durP1;ratioP1;P1;durP2;ratioP2;P2;SDS_P1;SDS_P2;PMS_P1;PMS_P2;Temp;Humidity;BMP_temperature;BMP_pressure;BME280_temperature;BME280_humidity;BME280_pressure;Samples;Min_cycle;Max_cycle;Signal;HPM_P1;HPM_P2
2021/07/17 00:00:15;;;;;;;4.28;2.55;;;;;;;19.66;100.00;92714.53;5030568;28;20059;-84
2021/07/17 00:02:42;;;;;;;3.80;2.03;;;;;;;19.63;100.00;92709.91;5030356;28;20058;-85
2021/07/17 00:05:11;;;;;;;1.85;1.33;;;;;;;19.33;100.00;92701.34;5030320;28;20061;-84
2021/07/17 00:07:38;;;;;;;2.67;1.55;;;;;;;19.13;100.00;92673.72;5030341;28;20045;-84
2021/07/17 00:10:07;;;;;;;3.97;2.42;;;;;;;19.16;100.00;92705.16;5029995;28;20053;-84
2021/07/17 00:12:35;;;;;;;1.73;1.35;;;;;;;18.99;100.00;92702.19;5032806;28;20053;-85
2021/07/17 00:15:02;;;;;;;3.17;1.70;;;;;;;19.14;100.00;92704.69;5034008;28;20092;-84
2021/07/17 00:17:28;;;;;;;2.88;1.77;;;;;;;19.16;100.00;92704.41;5033720;28;20054;-85
2021/07/17 00:19:55;;;;;;;3.75;1.90;;;;;;;18.92;100.00;92700.69;5031444;28;20108;-85
2021/07/17 00:22:22;;;;;;;3.72;2.75;;;;;;;18.88;100.00;92698.91;5033609;28;20111;-85
2021/07/17 00:24:49;;;;;;;3.50;2.50;;;;;;;18.94;100.00;92710.81;5033388;28;20557;-85
2021/07/17 00:27:16;;;;;;;3.72;2.08;;;;;;;19.08;100.00;92713.59;5033804;28;20061;-85
2021/07/17 00:29:45;;;;;;;3.78;2.63;;;;;;;19.14;100.00;92701.28;5033691;28;20406;-85
2021/07/17 00:32:12;;;;;;;6.13;3.67;;;;;;;19.08;100.00;92692.75;5033512;28;20459;-85
2021/07/17 00:34:38;;;;;;;5.45;3.33;;;;;;;19.12;100.00;92693.75;5033392;28;20046;-85
2021/07/17 00:37:05;;;;;;;4.55;3.15;;;;;;;19.16;100.00;92696.59;5033239;28;20045;-85
2021/07/17 00:39:33;;;;;;;7.80;3.88;;;;;;;19.12;100.00;92696.34;5033359;28;20061;-85
2021/07/17 00:42:00;;;;;;;6.55;3.90;;;;;;;19.13;100.00;92687.50;5033357;28;20466;-85
2021/07/17 00:44:27;;;;;;;5.05;3.35;;;;;;;19.20;100.00;92687.94;5033170;28;20050;-85
2021/07/17 00:46:57;;;;;;;4.38;3.25;;;;;;;19.29;100.00;92685.53;5033191;28;20049;-84
2021/07/17 00:49:29;;;;;;;5.00;3.28;;;;;;;19.34;100.00;92675.06;5033146;28;20049;-84
2021/07/17 00:51:56;;;;;;;5.80;3.47;;;;;;;19.51;100.00;92679.03;5033216;28;20042;-84
2021/07/17 00:54:25;;;;;;;4.22;3.30;;;;;;;19.58;100.00;92678.69;5033294;28;20053;-84
2021/07/17 00:56:53;;;;;;;5.57;2.70;;;;;;;19.59;100.00;92681.00;5032922;28;20509;-85
2021/07/17 00:59:23;;;;;;;4.85;3.33;;;;;;;19.62;100.00;92675.25;5033142;28;20057;-84
2021/07/17 01:01:53;;;;;;;3.97;2.55;;;;;;;19.59;100.00;92675.81;5032976;28;20077;-84
2021/07/17 01:04:22;;;;;;;4.97;3.28;;;;;;;19.55;100.00;92668.84;5032698;28;20057;-84
2021/07/17 01:06:49;;;;;;;6.28;3.08;;;;;;;19.56;100.00;92665.94;5033074;28;20054;-84
2021/07/17 01:09:16;;;;;;;4.50;2.85;;;;;;;19.59;100.00;92654.19;5032982;28;20045;-85
2021/07/17 01:11:43;;;;;;;7.75;4.18;;;;;;;19.56;100.00;92645.13;5032679;28;20490;-84
2021/07/17 01:14:12;;;;;;;4.22;3.33;;;;;;;19.65;100.00;92658.28;5032724;28;20490;-84
2021/07/17 01:16:40;;;;;;;4.80;3.80;;;;;;;19.57;100.00;92656.28;5032532;28;20655;-84
2021/07/17 01:19:10;;;;;;;6.80;3.75;;;;;;;19.04;100.00;92643.09;5032643;28;20111;-84
2021/07/17 01:21:39;;;;;;;5.50;4.05;;;;;;;19.13;100.00;92638.06;5032661;28;20058;-84
2021/07/17 01:24:06;;;;;;;7.75;4.00;;;;;;;18.98;100.00;92630.38;5031461;28;20050;-85
2021/07/17 01:26:32;;;;;;;10.85;3.13;;;;;;;18.82;100.00;92636.50;5032579;28;20065;-85
2021/07/17 01:28:59;;;;;;;3.88;2.70;;;;;;;18.95;100.00;92642.09;5032453;28;20050;-85
2021/07/17 01:31:28;;;;;;;7.00;3.97;;;;;;;19.10;100.00;92630.78;5032192;28;20068;-84
2021/07/17 01:33:54;;;;;;;7.00;3.67;;;;;;;19.21;100.00;92629.63;5032572;28;20088;-84
2021/07/17 01:36:21;;;;;;;5.47;4.28;;;;;;;19.19;100.00;92634.34;5032275;28;20053;-85
2021/07/17 01:38:49;;;;;;;8.27;3.75;;;;;;;19.23;100.00;92622.31;5032293;28;20057;-84
2021/07/17 01:41:17;;;;;;;7.47;4.15;;;;;;;19.30;100.00;92632.38;5032135;28;20053;-84
2021/07/17 01:43:45;;;;;;;5.50;3.60;;;;;;;19.34;100.00;92630.78;5032492;28;20095;-85
2021/07/17 01:46:11;;;;;;;7.15;3.03;;;;;;;19.31;100.00;92628.72;5032295;28;20045;-84
2021/07/17 01:48:38;;;;;;;5.35;3.72;;;;;;;19.32;100.00;92619.09;5032289;28;20068;-83
2021/07/17 01:51:05;;;;;;;3.65;2.78;;;;;;;19.33;100.00;92618.03;5031999;28;20056;-84
2021/07/17 01:53:32;;;;;;;5.43;3.08;;;;;;;19.38;100.00;92627.63;5031982;28;20053;-84
2021/07/17 01:56:00;;;;;;;4.28;1.90;;;;;;;19.38;100.00;92625.03;5031882;28;20061;-84
2021/07/17 01:58:27;;;;;;;2.78;1.88;;;;;;;19.33;100.00;92618.03;5031678;28;20057;-84
2021/07/17 02:00:54;;;;;;;5.03;1.92;;;;;;;19.31;100.00;92613.09;5032106;28;20050;-84
2021/07/17 02:03:21;;;;;;;3.20;2.05;;;;;;;19.39;100.00;92619.53;5031565;28;20061;-85
2021/07/17 02:05:48;;;;;;;2.63;1.98;;;;;;;19.34;100.00;92619.56;5032100;28;20042;-85
2021/07/17 02:08:14;;;;;;;2.22;1.58;;;;;;;19.33;100.00;92615.44;5031838;28;20104;-84
2021/07/17 02:10:41;;;;;;;3.95;1.85;;;;;;;19.28;100.00;92620.69;5031516;28;20418;-84
2021/07/17 02:13:11;;;;;;;3.10;2.05;;;;;;;19.26;100.00;92609.78;5031458;28;20046;-84
2021/07/17 02:15:43;;;;;;;3.33;2.03;;;;;;;19.29;100.00;92611.81;5031894;28;20056;-84
2021/07/17 02:18:11;;;;;;;3.42;2.15;;;;;;;19.31;100.00;92607.13;5031584;28;20049;-84
2021/07/17 02:20:38;;;;;;;6.38;2.70;;;;;;;19.26;100.00;92601.97;5031422;28;20049;-84
2021/07/17 02:23:05;;;;;;;2.97;2.42;;;;;;;19.18;100.00;92595.56;5031326;28;20050;-84
2021/07/17 02:25:32;;;;;;;3.50;2.38;;;;;;;19.17;100.00;92609.63;5031210;28;20058;-85
2021/07/17 02:27:59;;;;;;;4.15;2.55;;;;;;;19.15;100.00;92603.91;5031701;28;20602;-85
2021/07/17 02:30:28;;;;;;;4.63;2.17;;;;;;;19.17;100.00;92607.78;5031435;28;20049;-85
2021/07/17 02:32:55;;;;;;;4.63;2.20;;;;;;;19.21;100.00;92608.03;5031213;28;20045;-85
2021/07/17 02:35:22;;;;;;;4.45;2.90;;;;;;;19.14;100.00;92604.97;5030784;28;20041;-84
2021/07/17 02:37:49;;;;;;;7.55;3.00;;;;;;;19.21;100.00;92610.63;5031218;28;20064;-84
2021/07/17 02:40:15;;;;;;;7.75;3.38;;;;;;;19.21;100.00;92608.78;5031598;28;20486;-85
2021/07/17 02:42:43;;;;;;;3.28;2.42;;;;;;;19.22;100.00;92610.34;5031243;28;20072;-84
2021/07/17 02:45:11;;;;;;;5.13;2.15;;;;;;;19.20;100.00;92612.44;5031131;28;20391;-85
2021/07/17 02:47:39;;;;;;;2.22;1.52;;;;;;;19.21;100.00;92606.19;5031125;28;20053;-84
2021/07/17 02:50:07;;;;;;;6.53;1.92;;;;;;;19.18;100.00;92608.56;5031061;28;20059;-85
2021/07/17 02:52:34;;;;;;;2.40;1.65;;;;;;;19.19;100.00;92610.13;5030758;28;20045;-84
2021/07/17 02:55:01;;;;;;;1.80;1.25;;;;;;;19.16;100.00;92608.09;5030926;28;20053;-84
2021/07/17 02:57:28;;;;;;;2.28;1.40;;;;;;;19.15;100.00;92607.31;5030917;28;20065;-85
2021/07/17 02:59:55;;;;;;;2.78;2.00;;;;;;;19.17;100.00;92602.59;5031352;28;20041;-84
2021/07/17 03:02:22;;;;;;;1.85;1.02;;;;;;;19.13;100.00;92606.03;5030951;28;20053;-84
2021/07/17 03:04:50;;;;;;;2.15;1.95;;;;;;;18.83;100.00;92603.44;5030890;28;20049;-85
2021/07/17 03:07:16;;;;;;;1.98;1.38;;;;;;;18.60;100.00;92605.75;5030708;28;20120;-84
2021/07/17 03:09:43;;;;;;;1.80;1.17;;;;;;;18.38;100.00;92591.38;5030827;28;20049;-84
2021/07/17 03:12:10;;;;;;;2.22;1.27;;;;;;;18.60;100.00;92605.75;5030701;28;20045;-84
2021/07/17 03:14:37;;;;;;;2.92;1.45;;;;;;;18.48;100.00;92607.94;5030772;28;20053;-84
2021/07/17 03:17:04;;;;;;;5.60;3.40;;;;;;;18.50;100.00;92609.22;5030849;28;20095;-84
2021/07/17 03:19:31;;;;;;;1.90;1.50;;;;;;;18.45;100.00;92605.88;5030603;28;20049;-84
2021/07/17 03:22:00;;;;;;;2.97;2.05;;;;;;;18.58;100.00;92615.66;5030717;28;20054;-84
2021/07/17 03:24:26;;;;;;;1.35;0.98;;;;;;;18.47;100.00;92614.19;5030413;28;20065;-84
2021/07/17 03:26:53;;;;;;;4.50;2.28;;;;;;;18.41;100.00;92616.03;5030522;28;20099;-85
2021/07/17 03:29:20;;;;;;;3.33;2.67;;;;;;;18.48;100.00;92613.91;5030452;28;20505;-84
2021/07/17 03:31:47;;;;;;;2.28;1.67;;;;;;;18.49;100.00;92614.69;5030592;28;20048;-84
2021/07/17 03:34:13;;;;;;;7.30;1.52;;;;;;;18.56;100.00;92604.72;5030434;28;20472;-85
2021/07/17 03:36:41;;;;;;;2.55;1.52;;;;;;;18.60;100.00;92610.94;5030630;28;20504;-84
2021/07/17 03:39:09;;;;;;;2.92;2.25;;;;;;;18.67;100.00;92614.00;5030475;28;20041;-84
2021/07/17 03:41:37;;;;;;;3.00;1.77;;;;;;;18.75;100.00;92611.84;5030536;28;20064;-84
2021/07/17 03:44:04;;;;;;;4.80;2.92;;;;;;;18.86;100.00;92604.72;5030496;28;20057;-84
2021/07/17 03:46:31;;;;;;;3.83;3.15;;;;;;;19.00;100.00;92608.22;5031422;28;20045;-84
2021/07/17 03:48:58;;;;;;;12.82;2.20;;;;;;;19.09;100.00;92611.03;5034158;28;20099;-84
2021/07/17 03:51:25;;;;;;;6.97;3.08;;;;;;;19.12;100.00;92607.09;5034166;28;20049;-84
2021/07/17 03:53:52;;;;;;;5.35;3.88;;;;;;;19.19;100.00;92603.09;5034591;28;20057;-84
2021/07/17 03:56:20;;;;;;;4.20;2.95;;;;;;;19.29;100.00;92612.59;5034219;28;20056;-84
2021/07/17 03:58:47;;;;;;;9.38;4.15;;;;;;;19.40;100.00;92612.50;5034280;28;20115;-84
2021/07/17 04:01:14;;;;;;;4.93;3.08;;;;;;;19.46;100.00;92609.56;5034146;28;20061;-84
2021/07/17 04:03:40;;;;;;;3.85;2.50;;;;;;;19.56;100.00;92611.25;5033929;28;20494;-84
2021/07/17 04:06:07;;;;;;;2.88;2.25;;;;;;;19.51;100.00;92603.50;5034151;28;20444;-84
2021/07/17 04:08:34;;;;;;;2.85;1.83;;;;;;;19.59;100.00;92613.28;5033907;28;20045;-84
2021/07/17 04:11:01;;;;;;;8.43;2.45;;;;;;;19.62;100.00;92604.13;5033921;28;20126;-84
2021/07/17 04:13:29;;;;;;;2.95;1.67;;;;;;;19.66;100.00;92607.72;5033910;28;20049;-84
2021/07/17 04:15:56;;;;;;;3.17;2.08;;;;;;;19.69;100.00;92601.19;5033638;28;20513;-84
2021/07/17 04:18:22;;;;;;;3.78;1.80;;;;;;;19.74;100.00;92606.31;5033872;28;20064;-84
2021/07/17 04:20:49;;;;;;;2.65;1.75;;;;;;;19.79;100.00;92608.88;5033802;28;20049;-83
2021/07/17 04:23:16;;;;;;;2.92;1.98;;;;;;;19.82;100.00;92607.53;5031220;28;20100;-84
2021/07/17 04:25:43;;;;;;;2.20;1.80;;;;;;;19.82;100.00;92597.09;5023904;28;20046;-84
2021/07/17 04:28:09;;;;;;;3.20;2.05;;;;;;;19.93;100.00;92611.53;5023179;28;20057;-84
2021/07/17 04:30:37;;;;;;;3.53;2.83;;;;;;;19.97;100.00;92609.94;5016417;28;20045;-84
2021/07/17 04:33:05;;;;;;;3.00;2.28;;;;;;;19.95;100.00;92617.22;5029654;28;20064;-85
2021/07/17 04:35:31;;;;;;;4.03;1.95;;;;;;;19.99;100.00;92601.81;5018767;28;20049;-84
2021/07/17 04:37:58;;;;;;;2.90;1.95;;;;;;;20.07;100.00;92608.25;5030664;28;20050;-84
2021/07/17 04:40:25;;;;;;;2.03;1.25;;;;;;;20.13;100.00;92614.91;5013712;28;20057;-84
2021/07/17 04:42:52;;;;;;;4.45;2.30;;;;;;;20.13;100.00;92623.53;5013362;28;20493;-84
2021/07/17 04:45:19;;;;;;;3.92;2.58;;;;;;;20.15;100.00;92616.19;5013692;28;20061;-84
2021/07/17 04:47:47;;;;;;;2.90;2.25;;;;;;;20.23;100.00;92611.41;5023127;28;20046;-84
2021/07/17 04:50:14;;;;;;;1.67;1.27;;;;;;;20.15;100.00;92610.22;5013303;28;20066;-84
2021/07/17 04:52:41;;;;;;;7.57;2.25;;;;;;;19.80;100.00;92609.66;5013509;28;20116;-84
2021/07/17 04:55:08;;;;;;;3.17;1.73;;;;;;;19.75;100.00;92606.06;5021563;28;20041;-85
2021/07/17 04:57:35;;;;;;;3.33;1.65;;;;;;;19.89;100.00;92600.13;5032536;28;20052;-84
2021/07/17 05:00:02;;;;;;;3.10;1.80;;;;;;;19.75;100.00;92608.66;5032920;28;20042;-84
2021/07/17 05:02:29;;;;;;;2.78;1.90;;;;;;;19.67;100.00;92596.25;5032819;28;20211;-84
2021/07/17 05:04:57;;;;;;;4.10;2.33;;;;;;;19.80;100.00;92589.56;5019033;28;20050;-83
2021/07/17 05:07:24;;;;;;;9.93;2.65;;;;;;;19.86;100.00;92590.28;5013187;28;20049;-84
2021/07/17 05:09:50;;;;;;;2.85;2.28;;;;;;;19.96;100.00;92595.38;5013001;28;20058;-84
2021/07/17 05:12:17;;;;;;;3.17;1.77;;;;;;;20.04;100.00;92591.31;5020466;28;20099;-85
2021/07/17 05:14:44;;;;;;;3.65;1.92;;;;;;;20.23;100.00;92595.75;5032640;28;20494;-83
2021/07/17 05:17:11;;;;;;;3.70;2.58;;;;;;;20.43;100.00;92584.22;5032660;28;20091;-83
2021/07/17 05:19:37;;;;;;;3.90;2.63;;;;;;;20.63;100.00;92577.09;5032848;28;20053;-83
2021/07/17 05:22:06;;;;;;;3.25;1.70;;;;;;;20.82;100.00;92592.69;5012392;28;20053;-83
2021/07/17 05:24:32;;;;;;;3.38;2.38;;;;;;;20.93;100.00;92588.84;5017956;28;20057;-83
2021/07/17 05:26:59;;;;;;;3.47;1.73;;;;;;;20.88;100.00;92580.34;5032312;28;20064;-83
2021/07/17 05:29:26;;;;;;;4.25;2.25;;;;;;;20.91;98.06;92583.16;5032629;28;20072;-83
2021/07/17 05:31:53;;;;;;;3.13;1.95;;;;;;;20.71;99.48;92579.06;5032518;28;20053;-84
2021/07/17 05:34:20;;;;;;;3.22;1.80;;;;;;;20.91;100.00;92592.81;5032454;28;20045;-84
2021/07/17 05:36:46;;;;;;;2.83;2.15;;;;;;;20.52;100.00;92573.91;5032283;28;20092;-83
2021/07/17 05:39:15;;;;;;;3.00;1.73;;;;;;;20.69;100.00;92581.94;5016893;28;20064;-83
2021/07/17 05:41:41;;;;;;;3.15;2.70;;;;;;;20.94;98.54;92585.19;5012520;28;20049;-83
2021/07/17 05:44:08;;;;;;;5.22;2.70;;;;;;;21.11;99.45;92585.66;5012254;28;20054;-83
2021/07/17 05:46:35;;;;;;;3.05;2.20;;;;;;;21.26;97.70;92572.31;5012205;28;20058;-83
2021/07/17 05:49:02;;;;;;;3.15;2.33;;;;;;;21.62;96.46;92587.25;5012320;28;20061;-83
2021/07/17 05:51:29;;;;;;;3.35;1.98;;;;;;;21.70;95.50;92566.72;5012256;28;20100;-83
2021/07/17 05:53:55;;;;;;;3.47;2.00;;;;;;;21.94;94.05;92584.00;5012082;28;20046;-83
2021/07/17 05:56:23;;;;;;;4.07;2.67;;;;;;;22.07;93.84;92575.31;5012156;28;20100;-83
2021/07/17 05:58:50;;;;;;;3.05;1.92;;;;;;;22.15;92.29;92572.00;5012011;28;20415;-84
2021/07/17 06:01:17;;;;;;;2.17;1.60;;;;;;;22.20;90.98;92581.56;5012021;28;20057;-83
2021/07/17 06:03:46;;;;;;;2.60;2.00;;;;;;;22.18;90.55;92575.09;5011868;28;20061;-83
2021/07/17 06:06:13;;;;;;;5.72;3.53;;;;;;;22.21;92.25;92571.91;5011847;28;20049;-84
2021/07/17 06:08:39;;;;;;;5.50;4.07;;;;;;;22.22;91.51;92566.34;5011456;28;20054;-83
2021/07/17 06:11:06;;;;;;;4.10;3.65;;;;;;;22.31;92.20;92557.78;5011657;28;20054;-84
2021/07/17 06:13:35;;;;;;;5.00;3.80;;;;;;;22.56;91.65;92572.13;5011894;28;20053;-83
2021/07/17 06:16:01;;;;;;;9.35;4.07;;;;;;;22.86;88.93;92566.41;5011732;28;20494;-82
2021/07/17 06:18:28;;;;;;;4.13;2.72;;;;;;;22.99;88.71;92567.38;5011676;28;20038;-83
2021/07/17 06:20:55;;;;;;;3.70;2.42;;;;;;;23.06;88.15;92567.69;5011610;28;20104;-82
2021/07/17 06:23:22;;;;;;;5.13;3.72;;;;;;;23.40;86.14;92566.25;5011554;28;20058;-82
2021/07/17 06:25:48;;;;;;;3.58;2.90;;;;;;;23.74;85.15;92562.13;5011636;28;20053;-81
2021/07/17 06:28:15;;;;;;;5.88;2.83;;;;;;;23.91;83.44;92562.44;5011800;28;20494;-82
2021/07/17 06:30:43;;;;;;;7.30;2.60;;;;;;;24.07;82.51;92558.25;5011613;28;20049;-81
2021/07/17 06:33:10;;;;;;;4.43;2.63;;;;;;;24.20;80.67;92553.94;5011477;28;20054;-82
2021/07/17 06:35:37;;;;;;;5.20;2.88;;;;;;;24.49;80.33;92547.25;5011623;28;20049;-81
2021/07/17 06:38:04;;;;;;;5.32;3.10;;;;;;;24.94;78.74;92556.56;5011395;28;20388;-83
2021/07/17 06:40:31;;;;;;;4.97;3.47;;;;;;;25.33;77.54;92553.13;5011357;28;20520;-82
2021/07/17 06:42:58;;;;;;;2.90;2.22;;;;;;;25.71;75.54;92554.13;5011359;28;20061;-82
2021/07/17 06:45:25;;;;;;;4.05;1.90;;;;;;;25.99;75.07;92545.69;5011096;28;20065;-83
2021/07/17 06:47:53;;;;;;;4.13;2.55;;;;;;;26.24;73.32;92540.56;5011177;28;20054;-81
2021/07/17 06:50:21;;;;;;;3.95;2.65;;;;;;;26.48;70.77;92536.44;5011431;28;20111;-81
2021/07/17 06:52:48;;;;;;;3.70;2.40;;;;;;;26.63;70.17;92538.47;5011450;28;20042;-83
2021/07/17 06:55:15;;;;;;;4.50;2.35;;;;;;;26.83;70.55;92532.66;5011213;28;20096;-82
2021/07/17 06:57:45;;;;;;;3.08;1.92;;;;;;;27.21;69.49;92536.84;5011336;28;20050;-81
2021/07/17 07:00:13;;;;;;;3.83;1.75;;;;;;;27.49;67.81;92538.78;5011185;28;20504;-82
2021/07/17 07:02:40;;;;;;;4.18;2.58;;;;;;;27.65;67.33;92540.75;5011092;28;20395;-83
2021/07/17 07:05:11;;;;;;;2.85;1.63;;;;;;;27.99;66.21;92536.03;5011480;28;20054;-82
2021/07/17 07:07:38;;;;;;;2.75;1.55;;;;;;;27.85;64.05;92539.03;5030800;28;20049;-82
2021/07/17 07:10:07;;;;;;;4.38;2.33;;;;;;;28.23;65.06;92539.72;5030670;28;20429;-82
2021/07/17 07:12:37;;;;;;;3.67;1.95;;;;;;;28.59;63.65;92545.13;5030630;28;20041;-82
2021/07/17 07:15:05;;;;;;;4.13;1.90;;;;;;;28.63;63.19;92546.75;5025341;28;20050;-82
2021/07/17 07:17:31;;;;;;;4.65;1.63;;;;;;;28.66;62.49;92546.06;5029906;28;20049;-82
2021/07/17 07:19:58;;;;;;;3.78;1.63;;;;;;;28.16;64.01;92537.63;5031006;28;20422;-83
2021/07/17 07:22:26;;;;;;;2.78;1.73;;;;;;;28.35;62.91;92536.22;5034806;28;20448;-82
2021/07/17 07:24:53;;;;;;;3.33;1.23;;;;;;;28.43;61.84;92534.53;5026409;28;20425;-82
2021/07/17 07:27:20;;;;;;;3.13;1.50;;;;;;;28.35;58.85;92536.22;5015198;28;20061;-82
2021/07/17 07:29:47;;;;;;;2.22;1.30;;;;;;;28.26;60.92;92531.09;5014689;28;20054;-81
2021/07/17 07:32:14;;;;;;;2.03;1.05;;;;;;;28.32;61.44;92547.47;5014923;28;20445;-81
2021/07/17 07:34:40;;;;;;;1.70;0.98;;;;;;;28.45;58.41;92534.97;5015020;28;20050;-82
2021/07/17 07:37:08;;;;;;;4.80;1.38;;;;;;;28.60;58.33;92542.13;5014731;28;20604;-82
2021/07/17 07:39:36;;;;;;;2.03;1.20;;;;;;;28.77;58.67;92538.41;5014631;28;20050;-81
2021/07/17 07:42:04;;;;;;;2.05;0.93;;;;;;;28.59;54.66;92542.50;5014762;28;20056;-82
2021/07/17 07:44:31;;;;;;;3.55;1.95;;;;;;;28.70;56.60;92537.47;5014514;28;20045;-82
2021/07/17 07:46:58;;;;;;;2.38;1.27;;;;;;;28.75;55.59;92545.91;5014547;28;20391;-81
2021/07/17 07:49:25;;;;;;;3.42;1.20;;;;;;;29.07;55.87;92547.81;5014524;28;20541;-80
2021/07/17 07:51:52;;;;;;;1.90;1.05;;;;;;;29.34;53.64;92553.28;5014576;28;20042;-81
2021/07/17 07:54:18;;;;;;;1.98;1.08;;;;;;;29.55;53.47;92546.97;5014567;28;20053;-82
2021/07/17 07:56:46;;;;;;;2.15;1.33;;;;;;;29.72;53.18;92538.63;5014415;28;20046;-81
2021/07/17 07:59:13;;;;;;;5.60;1.42;;;;;;;29.80;52.83;92538.78;5014645;28;20050;-83
2021/07/17 08:01:40;;;;;;;1.60;1.08;;;;;;;29.68;51.35;92548.38;5014299;28;20577;-80
2021/07/17 08:04:07;;;;;;;2.35;1.13;;;;;;;29.60;52.62;92544.03;5014187;28;20050;-81
2021/07/17 08:06:34;;;;;;;2.80;1.77;;;;;;;28.94;53.13;92539.94;5012047;28;20050;-81
2021/07/17 08:09:00;;;;;;;1.95;0.50;;;;;;;29.17;53.57;92538.56;5014279;28;20050;-81
2021/07/17 08:11:27;;;;;;;1.77;0.88;;;;;;;29.47;51.88;92536.19;5014081;28;20450;-82
2021/07/17 08:13:55;;;;;;;2.38;0.60;;;;;;;29.64;51.91;92529.00;5014035;28;20046;-81
2021/07/17 08:16:22;;;;;;;3.30;1.50;;;;;;;29.67;49.96;92523.00;5014231;28;20108;-82
2021/07/17 08:18:49;;;;;;;8.88;2.40;;;;;;;29.92;51.11;92521.97;5013991;28;20053;-81
2021/07/17 08:21:16;;;;;;;2.75;1.20;;;;;;;30.18;48.33;92521.38;5013999;28;20092;-82
2021/07/17 08:23:44;;;;;;;3.28;1.30;;;;;;;28.33;51.33;92512.03;5013871;28;20112;-82
2021/07/17 08:26:10;;;;;;;4.03;2.25;;;;;;;28.50;51.03;92514.34;5032512;28;20053;-81
2021/07/17 08:28:37;;;;;;;1.83;0.80;;;;;;;28.26;49.68;92518.69;5033885;28;20049;-83
2021/07/17 08:31:06;;;;;;;1.83;1.02;;;;;;;28.27;52.96;92511.50;5033723;28;20053;-81
2021/07/17 08:33:33;;;;;;;1.98;1.02;;;;;;;27.95;52.27;92519.34;5033130;28;20057;-81
2021/07/17 08:36:00;;;;;;;6.60;1.85;;;;;;;27.86;51.65;92511.56;5033355;28;20549;-81
2021/07/17 08:38:26;;;;;;;2.05;1.00;;;;;;;28.30;49.04;92507.41;5024603;28;20050;-82
2021/07/17 08:40:55;;;;;;;1.83;1.08;;;;;;;28.83;50.63;92501.91;5013572;28;20061;-83
2021/07/17 08:43:22;;;;;;;4.10;1.33;;;;;;;28.85;46.84;92499.69;5013683;28;20156;-82
2021/07/17 08:45:49;;;;;;;1.25;1.00;;;;;;;29.03;45.53;92494.06;5013520;28;20050;-81
2021/07/17 08:48:20;;;;;;;1.55;0.93;;;;;;;28.58;46.50;92486.22;5013627;28;20099;-82
2021/07/17 08:50:48;;;;;;;1.60;0.82;;;;;;;29.35;45.60;92475.47;5013317;28;20486;-82
2021/07/17 08:53:17;;;;;;;1.95;1.23;;;;;;;29.89;44.50;92489.03;5013226;28;20058;-82
2021/07/17 08:55:45;;;;;;;3.60;0.70;;;;;;;30.56;42.77;92487.19;5013305;28;20046;-82
2021/07/17 08:58:12;;;;;;;2.53;0.90;;;;;;;30.75;41.79;92489.03;5012998;28;20490;-83
2021/07/17 09:00:41;;;;;;;1.35;0.73;;;;;;;31.17;40.45;92484.72;5013299;28;20049;-82
2021/07/17 09:03:10;;;;;;;5.00;0.82;;;;;;;31.02;39.29;92485.63;5013402;28;20046;-82
2021/07/17 09:05:44;;;;;;;5.15;0.82;;;;;;;31.13;40.09;92485.75;5012924;28;20058;-81
2021/07/17 09:08:12;;;;;;;1.65;0.88;;;;;;;31.45;40.32;92485.47;5013117;28;20077;-81
2021/07/17 09:10:40;;;;;;;3.20;0.80;;;;;;;31.66;39.52;92482.28;5013434;28;20042;-81
2021/07/17 09:13:16;;;;;;;1.50;0.85;;;;;;;31.48;39.57;92468.06;5013041;28;20046;-82
2021/07/17 09:15:54;;;;;;;1.40;0.93;;;;;;;31.06;38.45;92473.19;5012875;28;20050;-81
2021/07/17 09:18:26;;;;;;;4.90;1.10;;;;;;;30.78;38.63;92472.41;5012889;28;20142;-82
2021/07/17 09:21:00;;;;;;;2.67;1.23;;;;;;;31.04;39.42;92457.63;5013188;28;20046;-82
2021/07/17 09:23:30;;;;;;;2.97;1.27;;;;;;;31.71;38.23;92462.66;5025880;28;20049;-82
2021/07/17 09:25:57;;;;;;;2.03;0.77;;;;;;;32.07;35.64;92464.94;5015200;28;20494;-82
2021/07/17 09:28:26;;;;;;;1.98;1.10;;;;;;;32.38;35.13;92458.41;5012551;28;20050;-82
2021/07/17 09:30:55;;;;;;;2.08;0.93;;;;;;;32.42;34.11;92455.78;5012933;28;20050;-81
2021/07/17 09:33:22;;;;;;;3.03;1.17;;;;;;;32.53;34.37;92458.53;5012534;28;20494;-81
2021/07/17 09:35:50;;;;;;;2.88;1.15;;;;;;;32.65;32.67;92458.25;5012508;28;20449;-82
2021/07/17 09:38:19;;;;;;;1.27;0.60;;;;;;;32.91;33.46;92453.88;5012301;28;20057;-82
2021/07/17 09:40:49;;;;;;;1.20;0.40;;;;;;;33.22;32.05;92448.38;5012282;28;20056;-80
2021/07/17 09:43:31;;;;;;;1.85;0.60;;;;;;;32.64;33.33;92440.75;5012014;28;20576;-82
2021/07/17 09:45:59;;;;;;;2.22;1.38;;;;;;;32.52;31.82;92444.50;5011903;28;20502;-82
2021/07/17 09:48:28;;;;;;;2.03;0.90;;;;;;;32.16;33.55;92449.47;5012709;28;20045;-82
2021/07/17 09:50:56;;;;;;;1.58;0.68;;;;;;;32.05;33.67;92445.94;5012198;28;20046;-82
2021/07/17 09:53:45;;;;;;;1.77;0.93;;;;;;;31.91;32.83;92442.03;5012137;28;20104;-82
2021/07/17 09:56:15;;;;;;;1.67;0.75;;;;;;;31.73;34.08;92442.56;5012219;28;20046;-81
2021/07/17 09:58:42;;;;;;;1.60;0.47;;;;;;;31.95;30.59;92447.38;5012167;28;20050;-82
2021/07/17 10:01:18;;;;;;;2.28;0.98;;;;;;;32.02;31.43;92446.69;5012204;28;20049;-81
2021/07/17 10:03:46;;;;;;;2.03;1.05;;;;;;;31.56;32.13;92448.44;5012384;28;20438;-81
2021/07/17 10:06:38;;;;;;;1.02;0.68;;;;;;;31.32;32.49;92439.81;5011907;28;20058;-82
2021/07/17 10:09:22;;;;;;;4.47;0.77;;;;;;;32.30;33.72;92440.09;5012016;28;20050;-82
2021/07/17 10:11:53;;;;;;;1.55;0.82;;;;;;;33.05;32.95;92447.16;5011852;28;20046;-83
2021/07/17 10:14:21;;;;;;;1.52;0.80;;;;;;;33.44;28.16;92440.50;5011774;28;20046;-81
2021/07/17 10:16:53;;;;;;;5.18;0.70;;;;;;;33.81;25.02;92439.50;5011794;28;20050;-82
2021/07/17 10:19:21;;;;;;;1.92;0.75;;;;;;;33.77;28.79;92440.66;5012080;28;20078;-81
2021/07/17 10:21:48;;;;;;;1.48;1.00;;;;;;;33.95;28.28;92443.34;5011904;28;20434;-82
2021/07/17 10:24:16;;;;;;;1.13;0.40;;;;;;;34.27;26.77;92448.00;5011706;28;20050;-83
2021/07/17 10:26:44;;;;;;;1.13;0.55;;;;;;;33.17;28.20;92435.41;5011630;28;20057;-81
2021/07/17 10:29:13;;;;;;;2.47;0.63;;;;;;;32.13;29.61;92419.06;5010003;28;20038;-82
2021/07/17 10:31:42;;;;;;;1.30;0.85;;;;;;;32.53;29.32;92431.94;5011724;28;20383;-82
2021/07/17 10:34:09;;;;;;;2.80;0.60;;;;;;;33.07;28.68;92414.88;5011798;28;20046;-82
2021/07/17 10:36:41;;;;;;;0.95;0.60;;;;;;;32.04;29.03;92417.84;5011674;28;20046;-82
2021/07/17 10:39:11;;;;;;;2.53;0.68;;;;;;;32.39;29.20;92413.97;5011362;28;20054;-81
2021/07/17 10:41:44;;;;;;;1.13;0.40;;;;;;;32.91;28.44;92411.31;5011787;28;20057;-81
2021/07/17 10:44:11;;;;;;;0.60;0.30;;;;;;;32.59;28.31;92414.56;5011300;28;20517;-78
2021/07/17 10:46:40;;;;;;;1.40;0.63;;;;;;;32.17;29.06;92403.19;5011524;28;20100;-80
2021/07/17 10:49:09;;;;;;;2.83;1.38;;;;;;;31.71;29.80;92417.50;5021449;28;20045;-80
2021/07/17 10:51:37;;;;;;;7.88;0.85;;;;;;;31.99;29.78;92408.34;5030565;28;20497;-81
2021/07/17 10:54:06;;;;;;;3.88;1.20;;;;;;;32.37;30.24;92402.94;5030361;28;20068;-81
2021/07/17 10:56:40;;;;;;;2.55;1.30;;;;;;;31.91;29.75;92409.38;5030615;28;20042;-80
2021/07/17 10:59:10;;;;;;;0.98;0.50;;;;;;;32.09;28.71;92393.63;5031045;28;20128;-80
2021/07/17 11:02:03;;;;;;;1.95;0.40;;;;;;;32.54;28.43;92396.28;5030840;28;20058;-81
2021/07/17 11:04:51;;;;;;;6.40;1.10;;;;;;;32.34;28.75;92396.47;5016214;28;20045;-82
2021/07/17 11:07:38;;;;;;;3.33;0.95;;;;;;;33.30;29.09;92393.28;5030928;28;20056;-81
2021/07/17 11:10:10;;;;;;;0.77;0.38;;;;;;;32.92;27.91;92394.22;5030535;28;20054;-81
2021/07/17 11:13:00;;;;;;;2.03;0.70;;;;;;;32.56;27.31;92398.56;5030705;28;20057;-81
2021/07/17 11:15:41;;;;;;;1.27;0.65;;;;;;;32.44;27.26;92396.97;5031044;28;20413;-81
2021/07/17 11:18:26;;;;;;;1.88;0.65;;;;;;;32.69;27.29;92383.06;5031060;28;20060;-79
2021/07/17 11:20:58;;;;;;;0.88;0.50;;;;;;;32.89;27.87;92386.22;5030548;28;20041;-80
2021/07/17 11:23:33;;;;;;;0.80;0.28;;;;;;;33.55;26.30;92376.69;5030519;28;20145;-80
2021/07/17 11:26:02;;;;;;;1.40;0.80;;;;;;;33.52;26.74;92378.19;5030681;28;20112;-78
2021/07/17 11:29:03;;;;;;;1.30;0.80;;;;;;;33.43;27.27;92375.84;5030724;28;20291;-79
2021/07/17 11:31:48;;;;;;;2.15;1.10;;;;;;;33.61;26.54;92371.72;5030849;28;20053;-78
2021/07/17 11:34:38;;;;;;;;;;;;;;;33.04;26.97;92373.81;5031190;28;20053;-80